sensor_id;sensor_type;location;lat;lon;timestamp;pressure;altitude;pressure_sealevel;temperature;humidity
69058;BME280;56128;37.534;-122.308;2023-07-02T00:01:43;100871.69;;;29.19;49.79
69058;BME280;56128;37.534;-122.308;2023-07-02T00:04:09;100877.47;;;29.29;49.92
69058;BME280;56128;37.534;-122.308;2023-07-02T00:06:39;100874.34;;;29.14;50.01
69058;BME280;56128;37.534;-122.308;2023-07-02T00:09:10;100883.66;;;29.13;50.69
69058;BME280;56128;37.534;-122.308;2023-07-02T00:11:41;100877.66;;;29.04;49.68
69058;BME280;56128;37.534;-122.308;2023-07-02T00:14:08;100879.34;;;29.05;50.21
69058;BME280;56128;37.534;-122.308;2023-07-02T00:16:37;100885.19;;;29.09;50.48
69058;BME280;56128;37.534;-122.308;2023-07-02T00:19:03;100878.88;;;29.08;49.92
69058;BME280;56128;37.534;-122.308;2023-07-02T00:21:30;100878.00;;;28.84;50.90
69058;BME280;56128;37.534;-122.308;2023-07-02T00:23:59;100869.13;;;28.70;50.74
69058;BME280;56128;37.534;-122.308;2023-07-02T00:26:27;100876.13;;;28.66;51.19
69058;BME280;56128;37.534;-122.308;2023-07-02T00:28:55;100882.22;;;28.56;51.75
69058;BME280;56128;37.534;-122.308;2023-07-02T00:31:22;100874.97;;;28.43;52.19
69058;BME280;56128;37.534;-122.308;2023-07-02T00:33:48;100869.81;;;28.35;51.94
69058;BME280;56128;37.534;-122.308;2023-07-02T00:36:14;100872.88;;;28.27;53.18
69058;BME280;56128;37.534;-122.308;2023-07-02T00:38:42;100875.09;;;28.18;53.31
69058;BME280;56128;37.534;-122.308;2023-07-02T00:41:09;100871.22;;;27.89;55.12
69058;BME280;56128;37.534;-122.308;2023-07-02T00:43:35;100874.25;;;27.80;55.10
69058;BME280;56128;37.534;-122.308;2023-07-02T00:46:01;100869.25;;;27.77;55.62
69058;BME280;56128;37.534;-122.308;2023-07-02T00:48:29;100867.84;;;27.68;56.82
69058;BME280;56128;37.534;-122.308;2023-07-02T00:50:56;100864.63;;;27.52;56.58
69058;BME280;56128;37.534;-122.308;2023-07-02T00:53:22;100865.88;;;27.31;57.24
69058;BME280;56128;37.534;-122.308;2023-07-02T00:55:48;100866.38;;;27.47;58.44
69058;BME280;56128;37.534;-122.308;2023-07-02T00:58:14;100857.97;;;27.42;57.72
69058;BME280;56128;37.534;-122.308;2023-07-02T01:00:42;100855.94;;;27.30;57.82
69058;BME280;56128;37.534;-122.308;2023-07-02T01:03:09;100864.19;;;27.30;57.92
69058;BME280;56128;37.534;-122.308;2023-07-02T01:05:37;100860.84;;;27.28;58.54
69058;BME280;56128;37.534;-122.308;2023-07-02T01:08:04;100857.41;;;27.33;57.91
69058;BME280;56128;37.534;-122.308;2023-07-02T01:10:31;100860.22;;;27.26;57.78
69058;BME280;56128;37.534;-122.308;2023-07-02T01:13:08;100851.50;;;27.29;57.96
69058;BME280;56128;37.534;-122.308;2023-07-02T01:15:36;100850.59;;;27.35;58.39
69058;BME280;56128;37.534;-122.308;2023-07-02T01:18:04;100846.22;;;27.34;57.12
69058;BME280;56128;37.534;-122.308;2023-07-02T01:20:31;100841.72;;;27.40;57.98
69058;BME280;56128;37.534;-122.308;2023-07-02T01:22:59;100846.41;;;27.40;57.71
69058;BME280;56128;37.534;-122.308;2023-07-02T01:25:29;100845.94;;;27.43;58.36
69058;BME280;56128;37.534;-122.308;2023-07-02T01:27:55;100838.16;;;27.40;58.58
69058;BME280;56128;37.534;-122.308;2023-07-02T01:30:24;100836.00;;;27.42;59.34
69058;BME280;56128;37.534;-122.308;2023-07-02T01:32:51;100838.31;;;27.45;59.07
69058;BME280;56128;37.534;-122.308;2023-07-02T01:35:18;100842.88;;;27.51;58.12
69058;BME280;56128;37.534;-122.308;2023-07-02T01:37:44;100835.09;;;27.48;58.86
69058;BME280;56128;37.534;-122.308;2023-07-02T01:40:10;100838.31;;;27.45;61.55
69058;BME280;56128;37.534;-122.308;2023-07-02T01:42:37;100832.81;;;27.38;61.34
69058;BME280;56128;37.534;-122.308;2023-07-02T01:45:04;100834.66;;;27.51;58.61
69058;BME280;56128;37.534;-122.308;2023-07-02T01:47:31;100839.59;;;27.79;57.87
69058;BME280;56128;37.534;-122.308;2023-07-02T01:49:57;100840.81;;;27.83;58.76
69058;BME280;56128;37.534;-122.308;2023-07-02T01:52:23;100836.31;;;27.70;60.25
69058;BME280;56128;37.534;-122.308;2023-07-02T01:54:49;100832.88;;;27.57;60.89
69058;BME280;56128;37.534;-122.308;2023-07-02T01:57:18;100831.66;;;27.52;61.37
69058;BME280;56128;37.534;-122.308;2023-07-02T01:59:44;100835.31;;;27.46;60.46
69058;BME280;56128;37.534;-122.308;2023-07-02T02:02:10;100836.41;;;27.64;58.38
69058;BME280;56128;37.534;-122.308;2023-07-02T02:04:36;100830.66;;;27.84;56.74
69058;BME280;56128;37.534;-122.308;2023-07-02T02:07:03;100833.00;;;27.99;56.03
69058;BME280;56128;37.534;-122.308;2023-07-02T02:09:29;100830.44;;;28.04;55.00
69058;BME280;56128;37.534;-122.308;2023-07-02T02:11:58;100833.84;;;27.99;54.54
69058;BME280;56128;37.534;-122.308;2023-07-02T02:14:24;100835.84;;;27.92;54.41
69058;BME280;56128;37.534;-122.308;2023-07-02T02:16:50;100832.34;;;28.04;54.58
69058;BME280;56128;37.534;-122.308;2023-07-02T02:19:16;100827.25;;;28.00;52.96
69058;BME280;56128;37.534;-122.308;2023-07-02T02:21:43;100834.31;;;27.96;52.53
69058;BME280;56128;37.534;-122.308;2023-07-02T02:24:09;100828.06;;;27.89;52.76
69058;BME280;56128;37.534;-122.308;2023-07-02T02:26:35;100829.84;;;27.83;53.45
69058;BME280;56128;37.534;-122.308;2023-07-02T02:29:02;100825.69;;;27.74;52.58
69058;BME280;56128;37.534;-122.308;2023-07-02T02:31:28;100820.00;;;27.57;52.85
69058;BME280;56128;37.534;-122.308;2023-07-02T02:33:54;100830.22;;;27.50;53.74
69058;BME280;56128;37.534;-122.308;2023-07-02T02:36:20;100827.16;;;27.40;54.12
69058;BME280;56128;37.534;-122.308;2023-07-02T02:38:46;100829.09;;;27.32;53.25
69058;BME280;56128;37.534;-122.308;2023-07-02T02:41:12;100835.94;;;27.23;54.05
69058;BME280;56128;37.534;-122.308;2023-07-02T02:43:41;100832.88;;;27.13;54.00
69058;BME280;56128;37.534;-122.308;2023-07-02T02:46:10;100824.31;;;27.02;54.65
69058;BME280;56128;37.534;-122.308;2023-07-02T02:48:36;100823.81;;;26.87;56.47
69058;BME280;56128;37.534;-122.308;2023-07-02T02:51:03;100824.56;;;26.76;57.01
69058;BME280;56128;37.534;-122.308;2023-07-02T02:53:29;100818.72;;;26.58;58.00
69058;BME280;56128;37.534;-122.308;2023-07-02T02:55:55;100822.91;;;26.61;56.71
69058;BME280;56128;37.534;-122.308;2023-07-02T02:58:21;100819.13;;;26.62;55.28
69058;BME280;56128;37.534;-122.308;2023-07-02T03:00:48;100826.56;;;26.55;56.20
69058;BME280;56128;37.534;-122.308;2023-07-02T03:03:15;100828.06;;;26.51;55.84
69058;BME280;56128;37.534;-122.308;2023-07-02T03:05:42;100839.09;;;26.44;55.89
69058;BME280;56128;37.534;-122.308;2023-07-02T03:08:10;100829.88;;;26.32;58.19
69058;BME280;56128;37.534;-122.308;2023-07-02T03:10:36;100837.59;;;26.09;58.80
69058;BME280;56128;37.534;-122.308;2023-07-02T03:13:02;100849.63;;;26.02;58.16
69058;BME280;56128;37.534;-122.308;2023-07-02T03:15:28;100851.13;;;25.91;58.62
69058;BME280;56128;37.534;-122.308;2023-07-02T03:18:14;100847.19;;;25.80;59.00
69058;BME280;56128;37.534;-122.308;2023-07-02T03:20:40;100855.44;;;25.67;60.24
69058;BME280;56128;37.534;-122.308;2023-07-02T03:23:07;100846.41;;;25.46;61.58
69058;BME280;56128;37.534;-122.308;2023-07-02T03:25:33;100853.19;;;25.30;61.29
69058;BME280;56128;37.534;-122.308;2023-07-02T03:28:00;100854.44;;;25.21;61.84
69058;BME280;56128;37.534;-122.308;2023-07-02T03:30:26;100858.88;;;25.08;62.50
69058;BME280;56128;37.534;-122.308;2023-07-02T03:32:52;100863.06;;;24.91;64.19
69058;BME280;56128;37.534;-122.308;2023-07-02T03:35:18;100856.56;;;24.78;66.05
69058;BME280;56128;37.534;-122.308;2023-07-02T03:37:44;100857.13;;;24.60;65.02
69058;BME280;56128;37.534;-122.308;2023-07-02T03:40:12;100863.41;;;24.47;65.33
69058;BME280;56128;37.534;-122.308;2023-07-02T03:42:38;100867.78;;;24.28;65.11
69058;BME280;56128;37.534;-122.308;2023-07-02T03:45:04;100862.66;;;24.05;62.93
69058;BME280;56128;37.534;-122.308;2023-07-02T03:47:30;100868.22;;;23.90;62.59
69058;BME280;56128;37.534;-122.308;2023-07-02T03:49:57;100864.59;;;23.76;63.35
69058;BME280;56128;37.534;-122.308;2023-07-02T03:52:23;100864.13;;;23.66;64.23
69058;BME280;56128;37.534;-122.308;2023-07-02T03:54:49;100864.44;;;23.49;65.43
69058;BME280;56128;37.534;-122.308;2023-07-02T03:57:15;100871.34;;;23.45;65.56
69058;BME280;56128;37.534;-122.308;2023-07-02T03:59:41;100869.81;;;23.36;66.20
69058;BME280;56128;37.534;-122.308;2023-07-02T04:02:07;100869.69;;;23.23;66.94
69058;BME280;56128;37.534;-122.308;2023-07-02T04:04:34;100875.88;;;23.10;67.59
69058;BME280;56128;37.534;-122.308;2023-07-02T04:07:00;100874.72;;;22.97;68.09
69058;BME280;56128;37.534;-122.308;2023-07-02T04:09:26;100881.16;;;22.90;70.75
69058;BME280;56128;37.534;-122.308;2023-07-02T04:11:52;100876.03;;;22.80;71.28
69058;BME280;56128;37.534;-122.308;2023-07-02T04:14:18;100881.81;;;22.70;73.73
69058;BME280;56128;37.534;-122.308;2023-07-02T04:16:45;100880.66;;;22.58;75.63
69058;BME280;56128;37.534;-122.308;2023-07-02T04:19:11;100883.88;;;22.46;78.00
69058;BME280;56128;37.534;-122.308;2023-07-02T04:21:37;100881.16;;;22.31;81.20
69058;BME280;56128;37.534;-122.308;2023-07-02T04:24:04;100885.63;;;22.17;82.07
69058;BME280;56128;37.534;-122.308;2023-07-02T04:26:30;100891.94;;;22.03;82.55
69058;BME280;56128;37.534;-122.308;2023-07-02T04:28:56;100889.22;;;21.88;82.75
69058;BME280;56128;37.534;-122.308;2023-07-02T04:31:22;100897.03;;;21.76;83.21
69058;BME280;56128;37.534;-122.308;2023-07-02T04:33:49;100901.72;;;21.67;84.29
69058;BME280;56128;37.534;-122.308;2023-07-02T04:36:15;100907.72;;;21.63;85.49
69058;BME280;56128;37.534;-122.308;2023-07-02T04:38:41;100912.00;;;21.57;87.47
69058;BME280;56128;37.534;-122.308;2023-07-02T04:41:07;100910.59;;;21.46;90.21
69058;BME280;56128;37.534;-122.308;2023-07-02T04:43:36;100919.38;;;21.33;91.04
69058;BME280;56128;37.534;-122.308;2023-07-02T04:46:22;100921.00;;;21.19;92.11
69058;BME280;56128;37.534;-122.308;2023-07-02T04:48:48;100931.81;;;21.13;94.29
69058;BME280;56128;37.534;-122.308;2023-07-02T04:51:14;100927.09;;;21.06;96.58
69058;BME280;56128;37.534;-122.308;2023-07-02T04:53:41;100922.19;;;21.02;97.66
69058;BME280;56128;37.534;-122.308;2023-07-02T04:56:07;100934.28;;;20.99;98.90
69058;BME280;56128;37.534;-122.308;2023-07-02T04:58:33;100936.41;;;20.89;99.89
69058;BME280;56128;37.534;-122.308;2023-07-02T05:00:59;100942.94;;;20.80;100.00
69058;BME280;56128;37.534;-122.308;2023-07-02T05:03:26;100939.56;;;20.69;100.00
69058;BME280;56128;37.534;-122.308;2023-07-02T05:05:52;100941.31;;;20.62;100.00
69058;BME280;56128;37.534;-122.308;2023-07-02T05:08:19;100947.09;;;20.59;100.00
69058;BME280;56128;37.534;-122.308;2023-07-02T05:10:45;100940.84;;;20.50;100.00
69058;BME280;56128;37.534;-122.308;2023-07-02T05:13:11;100952.81;;;20.41;100.00
69058;BME280;56128;37.534;-122.308;2023-07-02T05:15:37;100954.34;;;20.35;100.00
69058;BME280;56128;37.534;-122.308;2023-07-02T05:18:03;100959.84;;;20.27;100.00
69058;BME280;56128;37.534;-122.308;2023-07-02T05:20:30;100958.34;;;20.16;100.00
69058;BME280;56128;37.534;-122.308;2023-07-02T05:22:56;100955.16;;;20.04;100.00
69058;BME280;56128;37.534;-122.308;2023-07-02T05:25:22;100960.28;;;19.91;100.00
69058;BME280;56128;37.534;-122.308;2023-07-02T05:27:48;100964.56;;;19.85;100.00
69058;BME280;56128;37.534;-122.308;2023-07-02T05:30:14;100956.72;;;19.82;100.00
69058;BME280;56128;37.534;-122.308;2023-07-02T05:32:40;100959.09;;;19.77;100.00
69058;BME280;56128;37.534;-122.308;2023-07-02T05:35:07;100960.63;;;19.71;100.00
69058;BME280;56128;37.534;-122.308;2023-07-02T05:37:33;100962.03;;;19.59;100.00
69058;BME280;56128;37.534;-122.308;2023-07-02T05:39:59;100971.19;;;19.50;100.00
69058;BME280;56128;37.534;-122.308;2023-07-02T05:42:26;100957.47;;;19.43;100.00
69058;BME280;56128;37.534;-122.308;2023-07-02T05:44:52;100955.75;;;19.34;100.00
69058;BME280;56128;37.534;-122.308;2023-07-02T05:47:18;100953.25;;;19.24;100.00
69058;BME280;56128;37.534;-122.308;2023-07-02T05:49:44;100950.50;;;19.16;100.00
69058;BME280;56128;37.534;-122.308;2023-07-02T05:52:10;100954.25;;;19.06;100.00
69058;BME280;56128;37.534;-122.308;2023-07-02T05:54:42;100947.63;;;19.01;100.00
69058;BME280;56128;37.534;-122.308;2023-07-02T05:57:08;100952.00;;;18.93;100.00
69058;BME280;56128;37.534;-122.308;2023-07-02T05:59:34;100947.56;;;18.84;100.00
69058;BME280;56128;37.534;-122.308;2023-07-02T06:02:01;100947.72;;;18.74;100.00
69058;BME280;56128;37.534;-122.308;2023-07-02T06:04:27;100943.13;;;18.66;100.00
69058;BME280;56128;37.534;-122.308;2023-07-02T06:06:53;100948.50;;;18.58;100.00
69058;BME280;56128;37.534;-122.308;2023-07-02T06:09:39;100944.09;;;18.49;100.00
69058;BME280;56128;37.534;-122.308;2023-07-02T06:12:05;100934.09;;;18.41;100.00
69058;BME280;56128;37.534;-122.308;2023-07-02T06:14:32;100942.00;;;18.34;100.00
69058;BME280;56128;37.534;-122.308;2023-07-02T06:16:58;100949.59;;;18.23;100.00
69058;BME280;56128;37.534;-122.308;2023-07-02T06:19:24;100952.78;;;18.18;100.00
69058;BME280;56128;37.534;-122.308;2023-07-02T06:21:51;100948.00;;;18.12;100.00
69058;BME280;56128;37.534;-122.308;2023-07-02T06:24:17;100948.81;;;18.04;100.00
69058;BME280;56128;37.534;-122.308;2023-07-02T06:26:43;100947.63;;;17.98;100.00
69058;BME280;56128;37.534;-122.308;2023-07-02T06:29:09;100951.94;;;17.91;100.00
69058;BME280;56128;37.534;-122.308;2023-07-02T06:31:35;100954.13;;;17.88;100.00
69058;BME280;56128;37.534;-122.308;2023-07-02T06:34:01;100953.56;;;17.76;100.00
69058;BME280;56128;37.534;-122.308;2023-07-02T06:36:28;100952.16;;;17.72;100.00
69058;BME280;56128;37.534;-122.308;2023-07-02T06:38:54;100957.91;;;17.68;100.00
69058;BME280;56128;37.534;-122.308;2023-07-02T06:41:20;100959.53;;;17.61;100.00
69058;BME280;56128;37.534;-122.308;2023-07-02T06:43:46;100949.81;;;17.50;100.00
69058;BME280;56128;37.534;-122.308;2023-07-02T06:46:12;100950.31;;;17.46;100.00
69058;BME280;56128;37.534;-122.308;2023-07-02T06:48:38;100955.03;;;17.44;100.00
69058;BME280;56128;37.534;-122.308;2023-07-02T06:51:05;100959.34;;;17.36;100.00
69058;BME280;56128;37.534;-122.308;2023-07-02T06:53:32;100954.56;;;17.30;100.00
69058;BME280;56128;37.534;-122.308;2023-07-02T06:55:59;100956.91;;;17.25;100.00
69058;BME280;56128;37.534;-122.308;2023-07-02T06:58:25;100955.53;;;17.21;100.00
69058;BME280;56128;37.534;-122.308;2023-07-02T07:00:51;100958.13;;;17.13;100.00
69058;BME280;56128;37.534;-122.308;2023-07-02T07:03:17;100953.38;;;17.07;100.00
69058;BME280;56128;37.534;-122.308;2023-07-02T07:05:43;100948.25;;;17.03;100.00
69058;BME280;56128;37.534;-122.308;2023-07-02T07:08:09;100952.44;;;16.98;100.00
69058;BME280;56128;37.534;-122.308;2023-07-02T07:10:36;100947.50;;;16.93;100.00
69058;BME280;56128;37.534;-122.308;2023-07-02T07:13:02;100946.09;;;16.89;100.00
69058;BME280;56128;37.534;-122.308;2023-07-02T07:15:33;100940.44;;;16.82;100.00
69058;BME280;56128;37.534;-122.308;2023-07-02T07:18:02;100949.31;;;16.75;100.00
69058;BME280;56128;37.534;-122.308;2023-07-02T07:20:29;100940.50;;;16.72;100.00
69058;BME280;56128;37.534;-122.308;2023-07-02T07:22:57;100935.84;;;16.65;100.00
69058;BME280;56128;37.534;-122.308;2023-07-02T07:25:23;100928.06;;;16.62;100.00
69058;BME280;56128;37.534;-122.308;2023-07-02T07:27:51;100936.63;;;16.57;100.00
69058;BME280;56128;37.534;-122.308;2023-07-02T07:30:17;100933.53;;;16.52;100.00
69058;BME280;56128;37.534;-122.308;2023-07-02T07:32:49;100934.69;;;16.49;100.00
69058;BME280;56128;37.534;-122.308;2023-07-02T07:35:16;100932.59;;;16.43;100.00
69058;BME280;56128;37.534;-122.308;2023-07-02T07:37:42;100932.19;;;16.38;100.00
69058;BME280;56128;37.534;-122.308;2023-07-02T07:40:08;100922.84;;;16.32;100.00
69058;BME280;56128;37.534;-122.308;2023-07-02T07:42:34;100924.88;;;16.30;100.00
69058;BME280;56128;37.534;-122.308;2023-07-02T07:45:04;100916.66;;;16.22;100.00
69058;BME280;56128;37.534;-122.308;2023-07-02T07:47:31;100918.63;;;16.20;100.00
69058;BME280;56128;37.534;-122.308;2023-07-02T07:49:57;100913.56;;;16.17;100.00
69058;BME280;56128;37.534;-122.308;2023-07-02T07:52:23;100912.84;;;16.15;100.00
69058;BME280;56128;37.534;-122.308;2023-07-02T07:54:49;100916.13;;;16.09;100.00
69058;BME280;56128;37.534;-122.308;2023-07-02T07:57:15;100911.91;;;16.06;100.00
69058;BME280;56128;37.534;-122.308;2023-07-02T07:59:42;100911.34;;;16.02;100.00
69058;BME280;56128;37.534;-122.308;2023-07-02T08:02:08;100906.56;;;15.96;100.00
69058;BME280;56128;37.534;-122.308;2023-07-02T08:04:34;100909.00;;;15.89;100.00
69058;BME280;56128;37.534;-122.308;2023-07-02T08:07:01;100905.44;;;15.79;100.00
69058;BME280;56128;37.534;-122.308;2023-07-02T08:09:30;100906.03;;;15.83;100.00
69058;BME280;56128;37.534;-122.308;2023-07-02T08:11:56;100900.06;;;15.79;100.00
69058;BME280;56128;37.534;-122.308;2023-07-02T08:14:22;100897.78;;;15.74;100.00
69058;BME280;56128;37.534;-122.308;2023-07-02T08:16:48;100901.63;;;15.72;100.00
69058;BME280;56128;37.534;-122.308;2023-07-02T08:19:14;100898.38;;;15.68;100.00
69058;BME280;56128;37.534;-122.308;2023-07-02T08:21:40;100904.38;;;15.62;100.00
69058;BME280;56128;37.534;-122.308;2023-07-02T08:24:07;100908.50;;;15.56;100.00
69058;BME280;56128;37.534;-122.308;2023-07-02T08:26:33;100907.94;;;15.53;100.00
69058;BME280;56128;37.534;-122.308;2023-07-02T08:28:59;100900.16;;;15.50;100.00
69058;BME280;56128;37.534;-122.308;2023-07-02T08:31:25;100896.91;;;15.46;100.00
69058;BME280;56128;37.534;-122.308;2023-07-02T08:33:51;100896.19;;;15.44;100.00
69058;BME280;56128;37.534;-122.308;2023-07-02T08:36:18;100893.81;;;15.41;100.00
69058;BME280;56128;37.534;-122.308;2023-07-02T08:38:44;100889.66;;;15.37;100.00
69058;BME280;56128;37.534;-122.308;2023-07-02T08:41:10;100891.13;;;15.31;100.00
69058;BME280;56128;37.534;-122.308;2023-07-02T08:43:36;100888.00;;;15.26;100.00
69058;BME280;56128;37.534;-122.308;2023-07-02T08:46:03;100881.19;;;15.22;100.00
69058;BME280;56128;37.534;-122.308;2023-07-02T08:48:30;100883.19;;;15.20;100.00
69058;BME280;56128;37.534;-122.308;2023-07-02T08:50:56;100886.16;;;15.17;100.00
69058;BME280;56128;37.534;-122.308;2023-07-02T08:53:22;100875.84;;;15.12;100.00
69058;BME280;56128;37.534;-122.308;2023-07-02T08:55:55;100870.72;;;15.09;100.00
69058;BME280;56128;37.534;-122.308;2023-07-02T08:58:22;100869.88;;;15.08;100.00
69058;BME280;56128;37.534;-122.308;2023-07-02T09:01:10;100866.88;;;15.02;100.00
69058;BME280;56128;37.534;-122.308;2023-07-02T09:03:38;100866.88;;;15.02;100.00
69058;BME280;56128;37.534;-122.308;2023-07-02T09:06:06;100865.78;;;14.95;100.00
69058;BME280;56128;37.534;-122.308;2023-07-02T09:08:33;100865.34;;;14.89;100.00
69058;BME280;56128;37.534;-122.308;2023-07-02T09:11:13;100869.06;;;14.88;100.00
69058;BME280;56128;37.534;-122.308;2023-07-02T09:16:30;100870.47;;;14.83;100.00
69058;BME280;56128;37.534;-122.308;2023-07-02T09:18:57;100874.28;;;14.80;100.00
69058;BME280;56128;37.534;-122.308;2023-07-02T09:21:26;100874.84;;;14.74;100.00
69058;BME280;56128;37.534;-122.308;2023-07-02T09:23:53;100871.59;;;14.70;100.00
69058;BME280;56128;37.534;-122.308;2023-07-02T09:26:21;100871.88;;;14.67;100.00
69058;BME280;56128;37.534;-122.308;2023-07-02T09:28:47;100869.44;;;14.64;100.00
69058;BME280;56128;37.534;-122.308;2023-07-02T09:31:14;100876.94;;;14.60;100.00
69058;BME280;56128;37.534;-122.308;2023-07-02T09:33:40;100878.06;;;14.58;100.00
69058;BME280;56128;37.534;-122.308;2023-07-02T09:36:06;100883.75;;;14.55;100.00
69058;BME280;56128;37.534;-122.308;2023-07-02T09:38:32;100883.75;;;14.55;100.00
69058;BME280;56128;37.534;-122.308;2023-07-02T09:40:59;100885.72;;;14.53;100.00
69058;BME280;56128;37.534;-122.308;2023-07-02T09:43:26;100881.63;;;14.49;100.00
69058;BME280;56128;37.534;-122.308;2023-07-02T09:45:54;100881.88;;;14.45;100.00
69058;BME280;56128;37.534;-122.308;2023-07-02T09:48:24;100880.31;;;14.43;100.00
69058;BME280;56128;37.534;-122.308;2023-07-02T09:50:54;100877.75;;;14.41;100.00
69058;BME280;56128;37.534;-122.308;2023-07-02T09:53:22;100876.34;;;14.37;100.00
69058;BME280;56128;37.534;-122.308;2023-07-02T09:55:48;100873.09;;;14.34;100.00
69058;BME280;56128;37.534;-122.308;2023-07-02T09:58:16;100869.81;;;14.30;100.00
69058;BME280;56128;37.534;-122.308;2023-07-02T10:00:42;100877.06;;;14.29;100.00
69058;BME280;56128;37.534;-122.308;2023-07-02T10:03:08;100881.00;;;14.25;100.00
69058;BME280;56128;37.534;-122.308;2023-07-02T10:05:35;100870.38;;;14.24;100.00
69058;BME280;56128;37.534;-122.308;2023-07-02T10:08:14;100877.75;;;14.22;100.00
69058;BME280;56128;37.534;-122.308;2023-07-02T10:10:42;100874.47;;;14.18;100.00
69058;BME280;56128;37.534;-122.308;2023-07-02T10:13:09;100886.22;;;14.17;100.00
69058;BME280;56128;37.534;-122.308;2023-07-02T10:15:35;100889.47;;;14.11;100.00
69058;BME280;56128;37.534;-122.308;2023-07-02T10:18:06;100887.91;;;14.08;100.00
69058;BME280;56128;37.534;-122.308;2023-07-02T10:23:02;100881.50;;;14.00;100.00
69058;BME280;56128;37.534;-122.308;2023-07-02T10:25:31;100886.16;;;13.98;100.00
69058;BME280;56128;37.534;-122.308;2023-07-02T10:27:59;100880.78;;;13.98;100.00
69058;BME280;56128;37.534;-122.308;2023-07-02T10:30:32;100886.88;;;14.00;100.00
69058;BME280;56128;37.534;-122.308;2023-07-02T10:33:12;100883.03;;;13.92;100.00
69058;BME280;56128;37.534;-122.308;2023-07-02T10:35:40;100888.41;;;13.92;100.00
69058;BME280;56128;37.534;-122.308;2023-07-02T10:38:23;100875.34;;;13.88;100.00
69058;BME280;56128;37.534;-122.308;2023-07-02T10:40:59;100868.56;;;13.84;100.00
69058;BME280;56128;37.534;-122.308;2023-07-02T10:43:30;100872.22;;;13.83;100.00
69058;BME280;56128;37.534;-122.308;2023-07-02T10:45:58;100878.47;;;13.83;100.00
69058;BME280;56128;37.534;-122.308;2023-07-02T10:48:28;100881.56;;;13.78;100.00
69058;BME280;56128;37.534;-122.308;2023-07-02T10:50:55;100878.88;;;13.78;100.00
69058;BME280;56128;37.534;-122.308;2023-07-02T10:53:21;100886.09;;;13.78;100.00
69058;BME280;56128;37.534;-122.308;2023-07-02T10:55:57;100875.00;;;13.71;100.00
69058;BME280;56128;37.534;-122.308;2023-07-02T10:58:25;100866.25;;;13.69;100.00
69058;BME280;56128;37.534;-122.308;2023-07-02T11:00:51;100864.53;;;13.68;100.00
69058;BME280;56128;37.534;-122.308;2023-07-02T11:03:26;100852.47;;;13.62;100.00
69058;BME280;56128;37.534;-122.308;2023-07-02T11:05:52;100853.59;;;13.60;100.00
69058;BME280;56128;37.534;-122.308;2023-07-02T11:08:19;100858.28;;;13.58;100.00
69058;BME280;56128;37.534;-122.308;2023-07-02T11:10:47;100858.66;;;13.53;100.00
69058;BME280;56128;37.534;-122.308;2023-07-02T11:13:18;100856.22;;;13.50;100.00
69058;BME280;56128;37.534;-122.308;2023-07-02T11:15:45;100858.09;;;13.50;100.00
69058;BME280;56128;37.534;-122.308;2023-07-02T11:18:18;100862.16;;;13.44;100.00
69058;BME280;56128;37.534;-122.308;2023-07-02T11:20:47;100863.00;;;13.44;100.00
69058;BME280;56128;37.534;-122.308;2023-07-02T11:23:24;100859.59;;;13.42;100.00
69058;BME280;56128;37.534;-122.308;2023-07-02T11:25:58;100868.38;;;13.44;100.00
69058;BME280;56128;37.534;-122.308;2023-07-02T11:28:25;100866.22;;;13.38;100.00
69058;BME280;56128;37.534;-122.308;2023-07-02T11:30:52;100870.84;;;13.36;100.00
69058;BME280;56128;37.534;-122.308;2023-07-02T11:33:18;100867.56;;;13.32;100.00
69058;BME280;56128;37.534;-122.308;2023-07-02T11:35:44;100875.06;;;13.29;100.00
69058;BME280;56128;37.534;-122.308;2023-07-02T11:38:10;100871.66;;;13.27;100.00
69058;BME280;56128;37.534;-122.308;2023-07-02T11:40:37;100868.22;;;13.25;100.00
69058;BME280;56128;37.534;-122.308;2023-07-02T11:43:03;100871.78;;;13.25;100.00
69058;BME280;56128;37.534;-122.308;2023-07-02T11:45:29;100876.56;;;13.22;100.00
69058;BME280;56128;37.534;-122.308;2023-07-02T11:47:55;100876.13;;;13.17;100.00
69058;BME280;56128;37.534;-122.308;2023-07-02T11:50:22;100883.44;;;13.14;100.00
69058;BME280;56128;37.534;-122.308;2023-07-02T11:52:48;100882.59;;;13.14;100.00
69058;BME280;56128;37.534;-122.308;2023-07-02T11:55:14;100886.50;;;13.10;100.00
69058;BME280;56128;37.534;-122.308;2023-07-02T11:57:40;100895.44;;;13.10;100.00
69058;BME280;56128;37.534;-122.308;2023-07-02T12:00:07;100891.88;;;13.10;100.00
69058;BME280;56128;37.534;-122.308;2023-07-02T12:02:33;100883.97;;;13.08;100.00
69058;BME280;56128;37.534;-122.308;2023-07-02T12:05:19;100884.69;;;13.10;100.00
69058;BME280;56128;37.534;-122.308;2023-07-02T12:07:45;100887.53;;;13.09;100.00
69058;BME280;56128;37.534;-122.308;2023-07-02T12:10:12;100878.88;;;13.05;100.00
69058;BME280;56128;37.534;-122.308;2023-07-02T12:12:38;100877.41;;;13.01;100.00
69058;BME280;56128;37.534;-122.308;2023-07-02T12:15:05;100882.06;;;12.99;100.00
69058;BME280;56128;37.534;-122.308;2023-07-02T12:17:31;100889.16;;;13.00;100.00
69058;BME280;56128;37.534;-122.308;2023-07-02T12:19:57;100889.66;;;12.94;100.00
69058;BME280;56128;37.534;-122.308;2023-07-02T12:22:24;100903.81;;;12.96;100.00